Time;durP1;ratioP1;P1;durP2;ratioP2;P2;SDS_P1;SDS_P2;PMS_P1;PMS_P2;Temp;Humidity;BMP_temperature;BMP_pressure;BME280_temperature;BME280_humidity;BME280_pressure;Samples;Min_cycle;Max_cycle;Signal;HPM_P1;HPM_P2
2022/01/07 08:09:39;;;;;;;7.10;4.37;;;-5.30;99.90;;;;;;5156408;27;20492;-75
2022/01/07 08:12:18;;;;;;;48.07;17.53;;;-5.40;99.90;;;;;;5134106;27;20422;-75
2022/01/07 08:17:28;;;;;;;33.40;13.63;;;-5.40;99.90;;;;;;5153192;27;20441;-75
2022/01/07 08:19:54;;;;;;;21.77;8.93;;;-5.30;99.90;;;;;;5152821;27;20425;-76
2022/01/07 08:22:20;;;;;;;6.57;3.90;;;-5.20;99.90;;;;;;5152558;27;20177;-76
2022/01/07 08:24:46;;;;;;;6.50;3.17;;;-5.00;99.90;;;;;;5134333;27;20613;-76
2022/01/07 08:27:11;;;;;;;4.97;2.77;;;-5.00;99.90;;;;;;5152596;27;20606;-76
2022/01/07 08:29:39;;;;;;;7.30;3.23;;;-4.90;99.90;;;;;;5133868;27;20468;-76
2022/01/07 08:34:53;;;;;;;5.73;3.10;;;-4.80;99.90;;;;;;5152676;27;20478;-76
2022/01/07 08:37:21;;;;;;;7.43;3.17;;;-4.70;99.90;;;;;;5133774;27;20416;-76
2022/01/07 08:50:23;;;;;;;6.50;3.43;;;-4.20;99.90;;;;;;5071508;28;20551;-76
2022/01/07 08:52:50;;;;;;;7.87;3.70;;;-4.10;99.90;;;;;;5071471;28;20464;-76
2022/01/07 08:55:16;;;;;;;9.43;5.07;;;-4.10;99.90;;;;;;5069931;28;20768;-76
2022/01/07 08:57:42;;;;;;;11.20;6.00;;;-3.90;99.90;;;;;;5069895;28;20415;-77
2022/01/07 09:00:08;;;;;;;16.23;12.10;;;-3.90;99.90;;;;;;5071728;28;20450;-76
2022/01/07 09:02:34;;;;;;;12.37;6.27;;;-3.60;99.90;;;;;;5070226;28;20177;-76
2022/01/07 09:05:00;;;;;;;8.90;5.63;;;-3.30;99.90;;;;;;5070705;28;20412;-76
2022/01/07 09:07:25;;;;;;;12.90;5.80;;;-3.10;99.90;;;;;;5070274;28;20498;-76
2022/01/07 09:09:51;;;;;;;16.03;8.70;;;-3.00;99.90;;;;;;5069678;28;20628;-76
2022/01/07 09:12:17;;;;;;;17.30;8.03;;;-2.80;99.90;;;;;;5070582;28;20551;-76
2022/01/07 09:14:43;;;;;;;14.33;7.33;;;-2.70;99.90;;;;;;5069763;28;20258;-77
2022/01/07 09:17:09;;;;;;;16.07;9.93;;;-2.70;99.90;;;;;;5070805;28;20439;-76
2022/01/07 09:19:34;;;;;;;15.00;8.03;;;-2.70;99.90;;;;;;5070540;28;20193;-77
2022/01/07 09:22:00;;;;;;;15.50;6.47;;;-2.60;99.90;;;;;;5070451;28;20174;-76
2022/01/07 09:24:27;;;;;;;8.03;4.67;;;-2.50;99.90;;;;;;5069608;28;20501;-77
2022/01/07 09:26:53;;;;;;;9.83;6.03;;;-2.60;99.90;;;;;;5070488;28;20173;-77
2022/01/07 09:29:22;;;;;;;11.50;6.17;;;-2.70;99.90;;;;;;5068808;28;20459;-76
2022/01/07 09:31:48;;;;;;;11.50;6.90;;;-2.90;99.90;;;;;;5069948;28;20461;-76
2022/01/07 09:34:13;;;;;;;7.93;4.43;;;-2.80;99.90;;;;;;5068812;28;20419;-76
2022/01/07 09:36:39;;;;;;;5.83;3.77;;;-2.70;99.90;;;;;;5068935;28;20264;-77
2022/01/07 09:39:05;;;;;;;7.33;4.27;;;-2.70;99.90;;;;;;5068723;28;20200;-77
2022/01/07 09:41:30;;;;;;;4.73;3.00;;;-2.80;99.90;;;;;;5069951;28;20177;-77
2022/01/07 09:43:57;;;;;;;7.60;4.13;;;-2.70;99.90;;;;;;5068811;28;20173;-77
2022/01/07 09:46:23;;;;;;;15.17;7.67;;;-2.40;99.90;;;;;;5068558;28;20177;-77
2022/01/07 09:48:49;;;;;;;12.13;7.13;;;-2.30;99.90;;;;;;5069565;28;20818;-77
2022/01/07 09:51:15;;;;;;;8.23;5.33;;;-2.20;99.90;;;;;;5068267;28;20259;-77
2022/01/07 09:53:42;;;;;;;9.27;4.77;;;-2.00;99.90;;;;;;5068386;28;20177;-77
2022/01/07 09:56:08;;;;;;;6.53;3.60;;;-2.20;99.90;;;;;;5069735;28;20483;-77
2022/01/07 09:58:34;;;;;;;8.17;4.73;;;-2.20;99.90;;;;;;5068314;28;20435;-77
2022/01/07 10:01:03;;;;;;;6.37;4.30;;;-2.20;99.90;;;;;;5059987;28;20411;-77
2022/01/07 10:03:40;;;;;;;5.40;3.97;;;-2.00;99.90;;;;;;5056732;28;20763;-78
2022/01/07 10:06:24;;;;;;;5.90;4.20;;;-1.90;99.90;;;;;;5056900;28;20518;-77
2022/01/07 10:09:10;;;;;;;8.43;4.37;;;-2.00;99.90;;;;;;5055065;28;20462;-77
2022/01/07 10:11:37;;;;;;;5.50;3.47;;;-1.90;99.90;;;;;;5056518;28;20414;-77
2022/01/07 10:14:21;;;;;;;5.20;4.03;;;-1.90;99.90;;;;;;5056966;28;20408;-77
2022/01/07 10:16:55;;;;;;;7.57;3.83;;;-1.90;99.90;;;;;;5055142;28;20914;-77
2022/01/07 10:19:32;;;;;;;6.10;3.87;;;-1.90;99.90;;;;;;5057602;28;20949;-77
2022/01/07 10:22:00;;;;;;;5.90;4.40;;;-1.90;99.90;;;;;;5060589;28;20423;-78
2022/01/07 10:24:26;;;;;;;3.97;3.03;;;-1.80;99.90;;;;;;5057715;28;20774;-77
2022/01/07 10:27:12;;;;;;;5.43;4.20;;;-1.70;99.90;;;;;;5056510;28;20412;-78
2022/01/07 10:29:43;;;;;;;5.87;4.30;;;-1.60;99.90;;;;;;5055704;28;20702;-77
2022/01/07 10:32:29;;;;;;;6.30;3.80;;;-1.60;99.90;;;;;;5055846;28;20400;-77
2022/01/07 10:35:14;;;;;;;7.87;4.90;;;-1.60;99.90;;;;;;5048655;28;20501;-77
2022/01/07 10:37:48;;;;;;;5.70;4.37;;;-1.60;99.90;;;;;;5034487;28;20405;-77
2022/01/07 10:40:20;;;;;;;4.90;3.37;;;-1.60;99.90;;;;;;5035829;28;20444;-77
2022/01/07 10:42:46;;;;;;;4.17;2.97;;;-1.60;99.90;;;;;;5035975;28;20404;-77
2022/01/07 10:45:12;;;;;;;3.73;2.90;;;-1.40;99.90;;;;;;5036135;28;20933;-77
2022/01/07 10:47:37;;;;;;;5.80;3.27;;;-1.50;99.90;;;;;;5035555;28;20536;-77
2022/01/07 10:50:21;;;;;;;3.80;2.50;;;-1.50;99.90;;;;;;5035398;28;20563;-77
2022/01/07 10:52:47;;;;;;;4.00;2.60;;;-1.50;99.90;;;;;;5035899;28;20504;-77
2022/01/07 10:55:19;;;;;;;3.87;2.47;;;-1.40;99.90;;;;;;5035475;28;20961;-78
2022/01/07 10:57:48;;;;;;;3.80;3.00;;;-1.40;99.90;;;;;;5036077;28;20241;-77
2022/01/07 11:00:16;;;;;;;7.87;3.10;;;-1.30;99.90;;;;;;5034216;28;20413;-78
2022/01/07 11:02:41;;;;;;;3.30;2.53;;;-1.40;99.90;;;;;;5037451;28;20761;-77
2022/01/07 11:05:08;;;;;;;4.80;3.10;;;-1.30;99.90;;;;;;5034106;28;20417;-77
2022/01/07 11:07:35;;;;;;;4.57;2.80;;;-1.20;99.90;;;;;;5035365;28;20178;-77
2022/01/07 11:10:03;;;;;;;3.50;2.30;;;-1.00;99.90;;;;;;5033874;28;20461;-78
2022/01/07 11:12:30;;;;;;;4.57;2.70;;;-0.90;99.90;;;;;;5007056;28;20503;-77
2022/01/07 11:15:00;;;;;;;4.57;3.07;;;-0.70;99.90;;;;;;5015833;28;20167;-76
2022/01/07 11:17:27;;;;;;;3.67;2.87;;;-0.50;99.90;;;;;;5015604;28;20410;-77
2022/01/07 11:19:59;;;;;;;5.93;3.90;;;-0.50;99.90;;;;;;5014201;28;20446;-77
2022/01/07 11:22:26;;;;;;;5.67;2.97;;;-0.30;99.90;;;;;;5014149;28;20455;-77
2022/01/07 11:25:05;;;;;;;3.00;2.23;;;-0.20;99.90;;;;;;5014197;28;20425;-77
2022/01/07 11:27:44;;;;;;;6.63;3.37;;;-0.10;99.90;;;;;;5015371;28;20394;-77
2022/01/07 11:30:14;;;;;;;5.27;2.83;;;0.10;99.90;;;;;;5015433;28;20456;-77
2022/01/07 11:32:47;;;;;;;4.53;3.03;;;-0.10;99.90;;;;;;5014533;28;20406;-77
2022/01/07 11:35:19;;;;;;;6.00;3.53;;;-0.10;99.90;;;;;;5014182;28;20425;-77
2022/01/07 11:37:47;;;;;;;10.10;3.93;;;0.00;99.90;;;;;;5014375;28;20414;-77
2022/01/07 11:40:29;;;;;;;10.93;5.70;;;0.10;99.90;;;;;;5016263;28;20410;-78
2022/01/07 11:42:59;;;;;;;14.73;7.60;;;0.00;99.90;;;;;;5016339;28;20413;-77
2022/01/07 11:45:34;;;;;;;6.90;4.10;;;0.00;99.90;;;;;;5016053;28;20409;-77
2022/01/07 11:48:09;;;;;;;2.87;2.60;;;-0.10;99.90;;;;;;5013664;28;20434;-77
2022/01/07 11:50:56;;;;;;;7.00;4.27;;;-0.20;99.90;;;;;;5013857;28;20422;-77
2022/01/07 11:53:45;;;;;;;5.60;4.73;;;-0.20;99.90;;;;;;5013783;28;20468;-77
2022/01/07 11:56:23;;;;;;;7.90;5.30;;;-0.40;99.90;;;;;;5014981;28;20494;-77
2022/01/07 11:58:57;;;;;;;6.87;4.03;;;-0.20;99.90;;;;;;5013802;28;20445;-77
2022/01/07 12:01:39;;;;;;;8.53;4.77;;;-0.20;99.90;;;;;;5013675;28;20416;-77
2022/01/07 12:04:14;;;;;;;4.33;3.03;;;-0.20;99.90;;;;;;5015353;28;20163;-77
2022/01/07 12:06:40;;;;;;;20.00;9.47;;;-0.20;99.90;;;;;;5014369;28;20417;-77
2022/01/07 12:09:07;;;;;;;12.83;6.13;;;-0.20;99.90;;;;;;5016557;28;20511;-78
2022/01/07 12:11:39;;;;;;;3.73;2.57;;;0.00;99.90;;;;;;5013426;28;20174;-77
2022/01/07 12:14:10;;;;;;;6.07;2.87;;;-0.10;99.90;;;;;;5013319;28;20537;-77
2022/01/07 12:16:38;;;;;;;5.43;3.10;;;-0.20;99.90;;;;;;5015027;28;20970;-77
2022/01/07 12:19:23;;;;;;;5.30;3.30;;;-0.10;99.90;;;;;;5014519;28;20668;-77
2022/01/07 12:21:58;;;;;;;5.03;3.27;;;-0.10;99.90;;;;;;5013347;28;20433;-77
2022/01/07 12:24:29;;;;;;;6.73;3.77;;;-0.10;99.90;;;;;;5014421;28;20548;-77
2022/01/07 12:27:10;;;;;;;8.67;4.20;;;-0.10;99.90;;;;;;5019121;28;20167;-77
2022/01/07 12:29:41;;;;;;;7.93;4.07;;;-0.10;99.90;;;;;;5019685;28;20526;-77
2022/01/07 12:32:09;;;;;;;6.33;3.90;;;-0.10;99.90;;;;;;5015943;28;20759;-77
2022/01/07 12:34:43;;;;;;;4.93;3.50;;;-0.10;99.90;;;;;;5014643;28;20493;-77
2022/01/07 12:37:10;;;;;;;5.27;3.57;;;-0.20;99.90;;;;;;5015071;28;20444;-77
2022/01/07 12:39:39;;;;;;;5.60;3.17;;;-0.10;99.90;;;;;;5014378;28;20438;-77
2022/01/07 12:42:06;;;;;;;4.10;2.90;;;-0.10;99.90;;;;;;5014127;28;20422;-78
2022/01/07 12:44:44;;;;;;;6.30;2.90;;;-0.10;99.90;;;;;;5013039;28;20439;-77
2022/01/07 12:47:14;;;;;;;2.83;2.27;;;-0.10;99.90;;;;;;5013137;28;20889;-77
2022/01/07 12:49:45;;;;;;;5.17;2.60;;;-0.10;99.90;;;;;;5014039;28;20476;-77
2022/01/07 12:52:26;;;;;;;4.20;2.50;;;-0.10;99.90;;;;;;5013002;28;20536;-77
2022/01/07 12:55:18;;;;;;;3.83;2.63;;;0.00;99.90;;;;;;5014673;28;20609;-77
2022/01/07 12:57:46;;;;;;;3.27;2.40;;;0.00;99.90;;;;;;5014413;28;20485;-78
2022/01/07 13:00:31;;;;;;;3.90;2.37;;;0.10;99.90;;;;;;5015584;28;20422;-78
2022/01/07 13:03:06;;;;;;;7.73;3.50;;;0.10;99.90;;;;;;5014787;28;20163;-77
2022/01/07 13:05:37;;;;;;;3.23;2.40;;;0.20;99.90;;;;;;5015223;28;20480;-78
2022/01/07 13:08:10;;;;;;;3.67;2.70;;;0.20;99.90;;;;;;5013388;28;20441;-78
2022/01/07 13:10:38;;;;;;;12.73;4.13;;;0.20;99.90;;;;;;5018095;28;20417;-77
2022/01/07 13:13:09;;;;;;;3.87;2.73;;;0.20;99.90;;;;;;5014031;28;20422;-78
2022/01/07 13:15:48;;;;;;;8.43;4.97;;;0.20;99.90;;;;;;5015034;28;20426;-79
2022/01/07 13:18:32;;;;;;;8.00;4.10;;;0.10;99.90;;;;;;5016303;28;20598;-78
2022/01/07 13:21:09;;;;;;;4.77;2.90;;;0.10;99.90;;;;;;5013401;28;20416;-77
2022/01/07 13:23:50;;;;;;;4.10;2.83;;;0.10;99.90;;;;;;5014367;28;20414;-77
2022/01/07 13:26:16;;;;;;;3.00;2.53;;;0.10;99.90;;;;;;5013632;28;20188;-78
2022/01/07 13:28:45;;;;;;;9.67;2.80;;;0.10;99.90;;;;;;5016536;28;20273;-77
2022/01/07 13:31:12;;;;;;;4.17;2.57;;;0.10;99.90;;;;;;5014946;28;20916;-78
2022/01/07 13:33:42;;;;;;;4.77;2.43;;;0.20;99.90;;;;;;5015165;28;20410;-77
2022/01/07 13:36:10;;;;;;;2.77;2.57;;;0.20;99.90;;;;;;5017490;28;20390;-78
2022/01/07 13:38:37;;;;;;;6.27;2.30;;;0.10;99.90;;;;;;5019617;28;20574;-78
2022/01/07 13:41:04;;;;;;;4.80;2.87;;;0.10;99.90;;;;;;5018261;28;20602;-79
2022/01/07 13:43:31;;;;;;;6.43;2.83;;;0.10;99.90;;;;;;5018986;28;20445;-78
2022/01/07 13:46:10;;;;;;;3.90;2.77;;;0.10;99.90;;;;;;5017594;28;20186;-78
2022/01/07 13:48:57;;;;;;;6.17;3.30;;;0.10;99.90;;;;;;5019090;28;20297;-78
2022/01/07 13:51:28;;;;;;;6.33;2.80;;;0.00;99.90;;;;;;5017859;28;20409;-79
2022/01/07 13:54:11;;;;;;;5.17;2.80;;;0.00;99.90;;;;;;5017936;28;20472;-79
2022/01/07 13:56:39;;;;;;;5.53;3.20;;;0.00;99.90;;;;;;5017748;28;20516;-79
2022/01/07 13:59:07;;;;;;;3.43;2.73;;;0.00;99.90;;;;;;5019798;28;20927;-79
2022/01/07 14:01:34;;;;;;;3.13;2.50;;;0.00;99.90;;;;;;5018704;28;20429;-78
2022/01/07 14:04:00;;;;;;;4.37;2.73;;;0.10;99.90;;;;;;5020902;28;20189;-78
2022/01/07 14:06:26;;;;;;;5.40;2.60;;;0.10;99.90;;;;;;5019266;28;20425;-78
2022/01/07 14:09:22;;;;;;;7.80;3.67;;;0.10;99.90;;;;;;5016665;28;20214;-78
2022/01/07 14:12:03;;;;;;;8.27;3.60;;;0.00;99.90;;;;;;5013124;28;20460;-77
2022/01/07 14:14:36;;;;;;;2.77;2.20;;;0.10;99.90;;;;;;5014735;28;20419;-80
2022/01/07 14:17:10;;;;;;;3.90;2.67;;;0.10;99.90;;;;;;5015741;28;20816;-78
2022/01/07 14:19:55;;;;;;;3.40;2.43;;;0.10;99.90;;;;;;5016342;28;20437;-79
2022/01/07 14:22:21;;;;;;;4.00;2.73;;;0.10;99.90;;;;;;5016563;28;20460;-78
2022/01/07 14:24:47;;;;;;;6.23;4.20;;;0.10;99.90;;;;;;5017301;28;20406;-78
2022/01/07 14:27:33;;;;;;;3.50;2.90;;;0.10;99.90;;;;;;5032683;28;20447;-78
2022/01/07 14:30:00;;;;;;;5.43;2.90;;;0.10;99.90;;;;;;5032871;28;20293;-79
2022/01/07 14:32:27;;;;;;;6.33;3.63;;;0.10;99.90;;;;;;5033739;28;20457;-78
2022/01/07 14:34:57;;;;;;;4.10;3.07;;;0.10;99.90;;;;;;5028961;28;20420;-77
2022/01/07 14:37:29;;;;;;;3.40;2.20;;;0.10;99.90;;;;;;5034117;28;20424;-78
2022/01/07 14:39:56;;;;;;;3.90;2.40;;;0.10;99.90;;;;;;5030579;28;20449;-78
2022/01/07 14:42:22;;;;;;;4.70;2.67;;;0.10;99.90;;;;;;5032378;28;20935;-78
2022/01/07 14:44:48;;;;;;;5.20;2.90;;;0.10;99.90;;;;;;5016998;28;20927;-78
2022/01/07 14:47:14;;;;;;;2.97;2.40;;;0.10;99.90;;;;;;5015641;28;20556;-78
2022/01/07 14:49:40;;;;;;;4.97;2.90;;;0.20;99.90;;;;;;5031646;28;20560;-78
2022/01/07 14:52:07;;;;;;;12.60;4.67;;;0.20;99.90;;;;;;5016940;28;20178;-77
2022/01/07 14:54:33;;;;;;;5.77;1.80;;;0.20;99.90;;;;;;5016992;28;20695;-77
2022/01/07 14:56:59;;;;;;;2.13;1.63;;;0.10;99.90;;;;;;5032580;28;20441;-77
2022/01/07 14:59:25;;;;;;;2.97;2.13;;;0.00;99.90;;;;;;5032891;28;20441;-78
2022/01/07 15:01:51;;;;;;;5.07;2.87;;;-0.20;99.90;;;;;;5017834;28;20183;-77
2022/01/07 15:04:17;;;;;;;7.20;3.00;;;-0.30;99.90;;;;;;5016636;28;20253;-77
2022/01/07 15:06:43;;;;;;;4.33;2.60;;;-0.40;99.90;;;;;;5031795;28;20273;-77
2022/01/07 15:09:09;;;;;;;7.93;3.50;;;-0.40;99.90;;;;;;5032320;28;20461;-78
2022/01/07 15:11:34;;;;;;;18.60;8.67;;;-0.50;99.90;;;;;;5017190;28;20421;-78
2022/01/07 15:14:00;;;;;;;40.13;17.50;;;-0.70;99.90;;;;;;5017875;28;20175;-78
2022/01/07 15:16:45;;;;;;;49.33;19.13;;;-0.60;99.90;;;;;;5020169;28;20175;-78
2022/01/07 15:19:11;;;;;;;13.40;7.67;;;-0.50;99.90;;;;;;5016663;28;20648;-78
2022/01/07 15:21:37;;;;;;;6.47;3.90;;;-0.60;99.90;;;;;;5019190;28;20432;-78
2022/01/07 15:24:08;;;;;;;2.10;1.90;;;-0.60;99.90;;;;;;5018534;28;20440;-77
2022/01/07 15:26:39;;;;;;;4.10;2.00;;;-0.70;99.90;;;;;;5016300;28;20209;-78
2022/01/07 15:29:07;;;;;;;4.07;2.17;;;-0.90;99.90;;;;;;5015898;28;20469;-78
2022/01/07 15:31:33;;;;;;;2.97;1.97;;;-1.00;99.90;;;;;;5014446;28;20977;-78
2022/01/07 15:33:59;;;;;;;2.07;1.73;;;-1.10;99.90;;;;;;5016532;28;20406;-77
2022/01/07 15:36:28;;;;;;;3.30;2.70;;;-1.10;99.90;;;;;;5015219;28;20421;-77
2022/01/07 15:38:57;;;;;;;4.27;1.90;;;-1.00;99.90;;;;;;5014453;28;20515;-78
2022/01/07 15:41:23;;;;;;;3.43;2.37;;;-1.00;99.90;;;;;;5014056;28;20422;-78
2022/01/07 15:43:49;;;;;;;11.53;7.23;;;-1.00;99.90;;;;;;5015687;28;20931;-78
2022/01/07 15:46:15;;;;;;;10.77;7.00;;;-0.90;99.90;;;;;;5014540;28;20429;-77
2022/01/07 15:48:40;;;;;;;11.10;6.13;;;-1.00;99.90;;;;;;5015486;28;20302;-77
2022/01/07 15:51:07;;;;;;;4.03;3.17;;;-0.90;99.90;;;;;;5015428;28;20536;-77
2022/01/07 15:53:32;;;;;;;6.97;6.27;;;-0.90;99.90;;;;;;5013984;28;20634;-77
2022/01/07 15:55:59;;;;;;;6.07;4.37;;;-0.90;99.90;;;;;;5013803;28;20438;-77
2022/01/07 15:58:26;;;;;;;7.03;4.87;;;-0.90;99.90;;;;;;5013154;28;20593;-77
2022/01/07 16:00:52;;;;;;;3.47;3.17;;;-0.80;99.90;;;;;;5014620;28;20406;-77
2022/01/07 16:03:17;;;;;;;4.40;3.10;;;-0.90;99.90;;;;;;5015123;28;20413;-77
2022/01/07 16:05:43;;;;;;;4.37;2.90;;;-0.90;99.90;;;;;;5015135;28;20171;-77
2022/01/07 16:08:09;;;;;;;4.40;3.17;;;-0.90;99.90;;;;;;5014643;28;20207;-77
2022/01/07 16:10:35;;;;;;;3.83;2.70;;;-0.90;99.90;;;;;;5013754;28;20198;-77
2022/01/07 16:13:01;;;;;;;5.13;2.80;;;-0.80;99.90;;;;;;5015053;28;20179;-77
2022/01/07 16:15:26;;;;;;;4.00;2.70;;;-0.80;99.90;;;;;;5014752;28;20416;-77
2022/01/07 16:17:52;;;;;;;4.73;2.50;;;-0.90;99.90;;;;;;5013401;28;20190;-77
